sensor_id;sensor_type;location;lat;lon;timestamp;pressure;altitude;pressure_sealevel;temperature;humidity
73860;BME280;62197;51.632;13.700;2022-12-29T00:02:12;99586.59;;;6.86;95.12
73860;BME280;62197;51.632;13.700;2022-12-29T00:04:37;99562.41;;;6.71;95.46
73860;BME280;62197;51.632;13.700;2022-12-29T00:07:03;99572.53;;;6.82;95.91
73860;BME280;62197;51.632;13.700;2022-12-29T00:09:32;99567.41;;;6.74;96.26
73860;BME280;62197;51.632;13.700;2022-12-29T00:11:58;99568.34;;;6.80;96.44
73860;BME280;62197;51.632;13.700;2022-12-29T00:14:23;99548.56;;;6.78;97.67
73860;BME280;62197;51.632;13.700;2022-12-29T00:17:08;99551.44;;;6.83;97.13
73860;BME280;62197;51.632;13.700;2022-12-29T00:19:33;99547.88;;;6.82;97.74
73860;BME280;62197;51.632;13.700;2022-12-29T00:22:17;99542.47;;;6.87;98.19
73860;BME280;62197;51.632;13.700;2022-12-29T00:25:02;99541.53;;;6.82;98.93
73860;BME280;62197;51.632;13.700;2022-12-29T00:27:34;99549.66;;;6.77;99.33
73860;BME280;62197;51.632;13.700;2022-12-29T00:30:20;99532.13;;;6.66;100.00
73860;BME280;62197;51.632;13.700;2022-12-29T00:33:18;99543.09;;;6.66;100.00
73860;BME280;62197;51.632;13.700;2022-12-29T00:36:27;99550.25;;;6.67;100.00
73860;BME280;62197;51.632;13.700;2022-12-29T00:39:01;99531.53;;;6.64;100.00
73860;BME280;62197;51.632;13.700;2022-12-29T00:41:45;99534.66;;;6.56;100.00
73860;BME280;62197;51.632;13.700;2022-12-29T00:44:29;99553.34;;;6.59;100.00
73860;BME280;62197;51.632;13.700;2022-12-29T00:46:54;99540.13;;;6.56;100.00
73860;BME280;62197;51.632;13.700;2022-12-29T00:49:20;99525.59;;;6.44;100.00
73860;BME280;62197;51.632;13.700;2022-12-29T00:52:09;99538.94;;;6.52;100.00
73860;BME280;62197;51.632;13.700;2022-12-29T00:54:36;99536.06;;;6.47;100.00
73860;BME280;62197;51.632;13.700;2022-12-29T00:57:03;99530.81;;;6.46;100.00
73860;BME280;62197;51.632;13.700;2022-12-29T00:59:28;99534.88;;;6.43;100.00
73860;BME280;62197;51.632;13.700;2022-12-29T01:01:54;99525.44;;;6.39;100.00
73860;BME280;62197;51.632;13.700;2022-12-29T01:04:20;99534.41;;;6.46;100.00
73860;BME280;62197;51.632;13.700;2022-12-29T01:06:46;99530.34;;;6.37;100.00
73860;BME280;62197;51.632;13.700;2022-12-29T01:09:12;99536.19;;;6.41;100.00
73860;BME280;62197;51.632;13.700;2022-12-29T01:11:56;99528.19;;;6.39;100.00
73860;BME280;62197;51.632;13.700;2022-12-29T01:14:22;99529.53;;;6.36;100.00
73860;BME280;62197;51.632;13.700;2022-12-29T01:16:47;99522.00;;;6.32;100.00
73860;BME280;62197;51.632;13.700;2022-12-29T01:19:14;99519.25;;;6.44;100.00
73860;BME280;62197;51.632;13.700;2022-12-29T01:21:39;99515.56;;;6.38;100.00
73860;BME280;62197;51.632;13.700;2022-12-29T01:24:05;99518.41;;;6.43;100.00
73860;BME280;62197;51.632;13.700;2022-12-29T01:26:30;99520.47;;;6.36;100.00
73860;BME280;62197;51.632;13.700;2022-12-29T01:28:56;99498.53;;;6.36;100.00
73860;BME280;62197;51.632;13.700;2022-12-29T01:31:21;99510.44;;;6.42;100.00
73860;BME280;62197;51.632;13.700;2022-12-29T01:33:46;99516.53;;;6.44;100.00
73860;BME280;62197;51.632;13.700;2022-12-29T01:36:14;99509.59;;;6.41;100.00
73860;BME280;62197;51.632;13.700;2022-12-29T01:38:41;99515.31;;;6.51;100.00
73860;BME280;62197;51.632;13.700;2022-12-29T01:41:08;99515.47;;;6.56;100.00
73860;BME280;62197;51.632;13.700;2022-12-29T01:43:42;99506.16;;;6.57;100.00
73860;BME280;62197;51.632;13.700;2022-12-29T01:46:28;99499.47;;;6.65;100.00
73860;BME280;62197;51.632;13.700;2022-12-29T01:51:35;99501.00;;;6.72;100.00
73860;BME280;62197;51.632;13.700;2022-12-29T01:54:04;99485.53;;;6.66;100.00
73860;BME280;62197;51.632;13.700;2022-12-29T01:56:32;99483.38;;;6.68;100.00
73860;BME280;62197;51.632;13.700;2022-12-29T01:59:05;99483.13;;;6.70;100.00
73860;BME280;62197;51.632;13.700;2022-12-29T02:01:33;99496.38;;;6.73;100.00
73860;BME280;62197;51.632;13.700;2022-12-29T02:03:59;99481.22;;;6.70;100.00
73860;BME280;62197;51.632;13.700;2022-12-29T02:06:39;99495.66;;;6.77;100.00
73860;BME280;62197;51.632;13.700;2022-12-29T02:09:07;99483.00;;;6.76;100.00
73860;BME280;62197;51.632;13.700;2022-12-29T02:11:32;99490.78;;;6.79;100.00
73860;BME280;62197;51.632;13.700;2022-12-29T02:13:59;99472.75;;;6.72;100.00
73860;BME280;62197;51.632;13.700;2022-12-29T02:16:59;99472.75;;;6.72;100.00
73860;BME280;62197;51.632;13.700;2022-12-29T02:19:47;99477.06;;;6.79;100.00
73860;BME280;62197;51.632;13.700;2022-12-29T02:22:52;99488.97;;;6.85;100.00
73860;BME280;62197;51.632;13.700;2022-12-29T02:27:55;99483.59;;;6.90;100.00
73860;BME280;62197;51.632;13.700;2022-12-29T02:30:48;99468.94;;;6.84;100.00
73860;BME280;62197;51.632;13.700;2022-12-29T02:36:15;99459.75;;;6.90;100.00
73860;BME280;62197;51.632;13.700;2022-12-29T02:38:47;99486.53;;;7.00;100.00
73860;BME280;62197;51.632;13.700;2022-12-29T02:44:09;99481.91;;;7.00;100.00
73860;BME280;62197;51.632;13.700;2022-12-29T02:46:41;99488.56;;;7.04;100.00
73860;BME280;62197;51.632;13.700;2022-12-29T02:49:14;99472.56;;;7.01;100.00
73860;BME280;62197;51.632;13.700;2022-12-29T02:51:53;99483.91;;;7.05;100.00
73860;BME280;62197;51.632;13.700;2022-12-29T02:54:20;99484.50;;;7.07;100.00
73860;BME280;62197;51.632;13.700;2022-12-29T02:57:08;99472.44;;;7.08;100.00
73860;BME280;62197;51.632;13.700;2022-12-29T02:59:34;99463.97;;;7.09;100.00
73860;BME280;62197;51.632;13.700;2022-12-29T03:02:11;99462.53;;;7.07;100.00
73860;BME280;62197;51.632;13.700;2022-12-29T03:04:53;99477.78;;;7.14;100.00
73860;BME280;62197;51.632;13.700;2022-12-29T03:10:30;99485.78;;;7.16;100.00
73860;BME280;62197;51.632;13.700;2022-12-29T03:16:26;99482.41;;;7.25;100.00
73860;BME280;62197;51.632;13.700;2022-12-29T03:19:15;99475.84;;;7.26;100.00
73860;BME280;62197;51.632;13.700;2022-12-29T03:22:04;99450.88;;;7.28;100.00
73860;BME280;62197;51.632;13.700;2022-12-29T03:24:50;99460.09;;;7.34;100.00
73860;BME280;62197;51.632;13.700;2022-12-29T03:27:26;99444.75;;;7.38;100.00
73860;BME280;62197;51.632;13.700;2022-12-29T03:29:57;99445.13;;;7.41;100.00
73860;BME280;62197;51.632;13.700;2022-12-29T03:32:38;99447.13;;;7.46;100.00
73860;BME280;62197;51.632;13.700;2022-12-29T03:35:06;99443.63;;;7.50;100.00
73860;BME280;62197;51.632;13.700;2022-12-29T03:37:41;99445.88;;;7.53;100.00
73860;BME280;62197;51.632;13.700;2022-12-29T03:40:09;99438.09;;;7.62;100.00
73860;BME280;62197;51.632;13.700;2022-12-29T03:42:35;99437.56;;;7.65;100.00
73860;BME280;62197;51.632;13.700;2022-12-29T03:45:01;99430.69;;;7.62;100.00
73860;BME280;62197;51.632;13.700;2022-12-29T03:47:29;99430.19;;;7.65;99.63
73860;BME280;62197;51.632;13.700;2022-12-29T03:49:54;99420.03;;;7.66;99.55
73860;BME280;62197;51.632;13.700;2022-12-29T03:52:19;99429.19;;;7.71;98.78
73860;BME280;62197;51.632;13.700;2022-12-29T03:54:45;99431.69;;;7.73;98.21
73860;BME280;62197;51.632;13.700;2022-12-29T03:57:10;99439.03;;;7.84;98.02
73860;BME280;62197;51.632;13.700;2022-12-29T03:59:36;99441.53;;;7.85;97.86
73860;BME280;62197;51.632;13.700;2022-12-29T04:02:01;99429.69;;;7.85;97.57
73860;BME280;62197;51.632;13.700;2022-12-29T04:04:27;99428.03;;;8.00;95.46
73860;BME280;62197;51.632;13.700;2022-12-29T04:06:52;99444.69;;;8.10;95.53
73860;BME280;62197;51.632;13.700;2022-12-29T04:09:17;99441.09;;;8.10;95.56
73860;BME280;62197;51.632;13.700;2022-12-29T04:11:42;99435.53;;;8.21;93.74
73860;BME280;62197;51.632;13.700;2022-12-29T04:14:08;99439.88;;;8.34;93.02
73860;BME280;62197;51.632;13.700;2022-12-29T04:16:33;99443.53;;;8.40;93.15
73860;BME280;62197;51.632;13.700;2022-12-29T04:19:01;99421.88;;;8.43;92.36
73860;BME280;62197;51.632;13.700;2022-12-29T04:21:26;99424.94;;;8.47;92.37
73860;BME280;62197;51.632;13.700;2022-12-29T04:23:52;99434.16;;;8.57;91.48
73860;BME280;62197;51.632;13.700;2022-12-29T04:26:17;99428.41;;;8.59;90.97
73860;BME280;62197;51.632;13.700;2022-12-29T04:28:42;99432.50;;;8.56;92.04
73860;BME280;62197;51.632;13.700;2022-12-29T04:31:07;99441.97;;;8.65;90.57
73860;BME280;62197;51.632;13.700;2022-12-29T04:33:33;99421.19;;;8.74;89.85
73860;BME280;62197;51.632;13.700;2022-12-29T04:35:58;99423.25;;;8.84;88.85
73860;BME280;62197;51.632;13.700;2022-12-29T04:38:23;99426.94;;;8.94;87.41
73860;BME280;62197;51.632;13.700;2022-12-29T04:40:50;99421.97;;;8.91;88.21
73860;BME280;62197;51.632;13.700;2022-12-29T04:43:15;99417.34;;;8.97;87.17
73860;BME280;62197;51.632;13.700;2022-12-29T04:45:45;99423.59;;;9.14;86.78
73860;BME280;62197;51.632;13.700;2022-12-29T04:48:10;99422.47;;;9.10;86.78
73860;BME280;62197;51.632;13.700;2022-12-29T04:50:36;99435.47;;;9.15;87.19
73860;BME280;62197;51.632;13.700;2022-12-29T04:53:01;99431.25;;;9.07;87.73
73860;BME280;62197;51.632;13.700;2022-12-29T04:55:26;99427.06;;;9.04;87.86
73860;BME280;62197;51.632;13.700;2022-12-29T04:57:51;99427.66;;;9.06;88.07
73860;BME280;62197;51.632;13.700;2022-12-29T05:00:17;99435.47;;;9.15;87.40
73860;BME280;62197;51.632;13.700;2022-12-29T05:02:42;99419.56;;;9.22;86.22
73860;BME280;62197;51.632;13.700;2022-12-29T05:05:08;99436.19;;;9.32;85.35
73860;BME280;62197;51.632;13.700;2022-12-29T05:07:33;99425.75;;;9.34;85.36
73860;BME280;62197;51.632;13.700;2022-12-29T05:09:59;99417.88;;;9.42;84.07
73860;BME280;62197;51.632;13.700;2022-12-29T05:12:24;99418.81;;;9.53;84.59
73860;BME280;62197;51.632;13.700;2022-12-29T05:14:49;99434.53;;;9.52;84.54
73860;BME280;62197;51.632;13.700;2022-12-29T05:17:14;99433.97;;;9.55;84.76
73860;BME280;62197;51.632;13.700;2022-12-29T05:19:40;99429.34;;;9.61;83.91
73860;BME280;62197;51.632;13.700;2022-12-29T05:22:05;99447.03;;;9.65;83.07
73860;BME280;62197;51.632;13.700;2022-12-29T05:24:30;99445.38;;;9.64;83.40
73860;BME280;62197;51.632;13.700;2022-12-29T05:26:55;99422.81;;;9.67;83.21
73860;BME280;62197;51.632;13.700;2022-12-29T05:29:21;99413.97;;;9.65;83.41
73860;BME280;62197;51.632;13.700;2022-12-29T05:31:46;99409.59;;;9.69;83.80
73860;BME280;62197;51.632;13.700;2022-12-29T05:34:11;99423.00;;;9.60;83.35
73860;BME280;62197;51.632;13.700;2022-12-29T05:36:36;99425.00;;;9.65;84.08
73860;BME280;62197;51.632;13.700;2022-12-29T05:39:02;99411.19;;;9.60;84.43
73860;BME280;62197;51.632;13.700;2022-12-29T05:41:27;99422.28;;;9.70;83.54
73860;BME280;62197;51.632;13.700;2022-12-29T05:43:53;99397.66;;;9.58;84.16
73860;BME280;62197;51.632;13.700;2022-12-29T05:46:18;99397.44;;;9.65;83.68
73860;BME280;62197;51.632;13.700;2022-12-29T05:48:43;99386.44;;;9.65;83.84
73860;BME280;62197;51.632;13.700;2022-12-29T05:51:08;99393.06;;;9.69;83.81
73860;BME280;62197;51.632;13.700;2022-12-29T05:53:33;99389.72;;;9.62;84.73
73860;BME280;62197;51.632;13.700;2022-12-29T05:55:59;99389.16;;;9.60;84.85
73860;BME280;62197;51.632;13.700;2022-12-29T05:58:24;99398.72;;;9.52;85.05
73860;BME280;62197;51.632;13.700;2022-12-29T06:00:49;99417.84;;;9.64;84.55
73860;BME280;62197;51.632;13.700;2022-12-29T06:03:14;99406.81;;;9.64;84.62
73860;BME280;62197;51.632;13.700;2022-12-29T06:05:40;99392.97;;;9.59;84.87
73860;BME280;62197;51.632;13.700;2022-12-29T06:08:05;99389.75;;;9.67;84.71
73860;BME280;62197;51.632;13.700;2022-12-29T06:10:30;99393.81;;;9.59;84.67
73860;BME280;62197;51.632;13.700;2022-12-29T06:12:56;99382.56;;;9.66;85.66
73860;BME280;62197;51.632;13.700;2022-12-29T06:15:21;99374.81;;;9.58;85.69
73860;BME280;62197;51.632;13.700;2022-12-29T06:17:46;99385.88;;;9.68;85.62
73860;BME280;62197;51.632;13.700;2022-12-29T06:20:11;99379.78;;;9.61;85.37
73860;BME280;62197;51.632;13.700;2022-12-29T06:22:37;99386.69;;;9.63;85.52
73860;BME280;62197;51.632;13.700;2022-12-29T06:25:02;99399.81;;;9.56;85.27
73860;BME280;62197;51.632;13.700;2022-12-29T06:27:28;99390.38;;;9.47;85.97
73860;BME280;62197;51.632;13.700;2022-12-29T06:29:53;99383.97;;;9.37;86.39
73860;BME280;62197;51.632;13.700;2022-12-29T06:32:18;99387.75;;;9.31;86.32
73860;BME280;62197;51.632;13.700;2022-12-29T06:34:44;99368.97;;;9.28;86.31
73860;BME280;62197;51.632;13.700;2022-12-29T06:37:09;99382.84;;;9.38;85.54
73860;BME280;62197;51.632;13.700;2022-12-29T06:39:35;99386.38;;;9.33;86.32
73860;BME280;62197;51.632;13.700;2022-12-29T06:42:00;99399.66;;;9.36;85.53
73860;BME280;62197;51.632;13.700;2022-12-29T06:44:25;99388.81;;;9.30;85.93
73860;BME280;62197;51.632;13.700;2022-12-29T06:46:50;99402.44;;;9.41;85.81
73860;BME280;62197;51.632;13.700;2022-12-29T06:49:16;99391.13;;;9.38;85.00
73860;BME280;62197;51.632;13.700;2022-12-29T06:51:41;99417.63;;;9.44;85.55
73860;BME280;62197;51.632;13.700;2022-12-29T06:54:07;99409.34;;;9.44;85.51
73860;BME280;62197;51.632;13.700;2022-12-29T06:56:32;99415.94;;;9.43;85.15
73860;BME280;62197;51.632;13.700;2022-12-29T06:58:57;99398.91;;;9.46;84.44
73860;BME280;62197;51.632;13.700;2022-12-29T07:01:25;99398.31;;;9.39;84.74
73860;BME280;62197;51.632;13.700;2022-12-29T07:03:50;99406.19;;;9.57;84.05
73860;BME280;62197;51.632;13.700;2022-12-29T07:06:16;99393.97;;;9.48;84.30
73860;BME280;62197;51.632;13.700;2022-12-29T07:08:41;99402.84;;;9.55;85.37
73860;BME280;62197;51.632;13.700;2022-12-29T07:11:06;99393.50;;;9.56;84.19
73860;BME280;62197;51.632;13.700;2022-12-29T07:13:31;99409.00;;;9.62;83.57
73860;BME280;62197;51.632;13.700;2022-12-29T07:15:57;99399.59;;;9.58;84.28
73860;BME280;62197;51.632;13.700;2022-12-29T07:18:22;99393.06;;;9.69;83.93
73860;BME280;62197;51.632;13.700;2022-12-29T07:20:47;99390.88;;;9.71;84.01
73860;BME280;62197;51.632;13.700;2022-12-29T07:23:13;99397.00;;;9.78;83.79
73860;BME280;62197;51.632;13.700;2022-12-29T07:25:38;99393.19;;;9.84;82.76
73860;BME280;62197;51.632;13.700;2022-12-29T07:28:05;99401.47;;;9.84;83.17
73860;BME280;62197;51.632;13.700;2022-12-29T07:30:31;99401.47;;;9.84;82.74
73860;BME280;62197;51.632;13.700;2022-12-29T07:32:56;99403.06;;;9.75;83.25
73860;BME280;62197;51.632;13.700;2022-12-29T07:35:22;99412.47;;;9.79;83.41
73860;BME280;62197;51.632;13.700;2022-12-29T07:37:47;99404.66;;;9.71;84.18
73860;BME280;62197;51.632;13.700;2022-12-29T07:40:12;99405.84;;;9.80;83.49
73860;BME280;62197;51.632;13.700;2022-12-29T07:42:38;99387.59;;;9.74;83.99
73860;BME280;62197;51.632;13.700;2022-12-29T07:45:03;99394.84;;;10.12;90.00
73860;BME280;62197;51.632;13.700;2022-12-29T07:47:29;99404.63;;;10.29;84.21
73860;BME280;62197;51.632;13.700;2022-12-29T07:49:54;99400.72;;;10.25;84.51
73860;BME280;62197;51.632;13.700;2022-12-29T07:52:19;99396.91;;;10.31;83.70
73860;BME280;62197;51.632;13.700;2022-12-29T07:54:44;99403.78;;;10.29;81.54
73860;BME280;62197;51.632;13.700;2022-12-29T07:57:10;99384.97;;;10.21;81.93
73860;BME280;62197;51.632;13.700;2022-12-29T07:59:35;99379.59;;;10.04;82.85
73860;BME280;62197;51.632;13.700;2022-12-29T08:02:01;99374.22;;;9.87;84.13
73860;BME280;62197;51.632;13.700;2022-12-29T08:04:26;99391.78;;;9.81;84.38
73860;BME280;62197;51.632;13.700;2022-12-29T08:06:51;99381.50;;;9.72;85.02
73860;BME280;62197;51.632;13.700;2022-12-29T08:09:16;99410.56;;;9.84;84.62
73860;BME280;62197;51.632;13.700;2022-12-29T08:11:42;99408.09;;;9.83;83.72
73860;BME280;62197;51.632;13.700;2022-12-29T08:14:08;99408.97;;;9.88;84.00
73860;BME280;62197;51.632;13.700;2022-12-29T08:16:33;99423.00;;;9.87;84.64
73860;BME280;62197;51.632;13.700;2022-12-29T08:18:59;99407.06;;;9.94;84.15
73860;BME280;62197;51.632;13.700;2022-12-29T08:21:24;99431.09;;;9.98;83.98
73860;BME280;62197;51.632;13.700;2022-12-29T08:23:49;99415.91;;;9.96;84.38
73860;BME280;62197;51.632;13.700;2022-12-29T08:26:15;99436.34;;;10.00;84.78
73860;BME280;62197;51.632;13.700;2022-12-29T08:28:40;99441.88;;;10.05;84.27
73860;BME280;62197;51.632;13.700;2022-12-29T08:31:05;99440.94;;;10.16;84.16
73860;BME280;62197;51.632;13.700;2022-12-29T08:33:31;99435.94;;;10.18;83.68
73860;BME280;62197;51.632;13.700;2022-12-29T08:36:05;99421.69;;;10.26;83.46
73860;BME280;62197;51.632;13.700;2022-12-29T08:38:31;99424.50;;;10.31;83.71
73860;BME280;62197;51.632;13.700;2022-12-29T08:40:57;99435.53;;;10.36;83.54
73860;BME280;62197;51.632;13.700;2022-12-29T08:43:23;99431.13;;;10.35;83.38
73860;BME280;62197;51.632;13.700;2022-12-29T08:45:49;99425.63;;;10.35;82.84
73860;BME280;62197;51.632;13.700;2022-12-29T08:48:14;99426.97;;;10.33;83.43
73860;BME280;62197;51.632;13.700;2022-12-29T08:50:43;99410.13;;;10.29;83.49
73860;BME280;62197;51.632;13.700;2022-12-29T08:53:09;99417.84;;;10.27;84.07
73860;BME280;62197;51.632;13.700;2022-12-29T08:55:34;99396.38;;;10.34;83.52
73860;BME280;62197;51.632;13.700;2022-12-29T08:58:00;99404.72;;;10.49;82.42
73860;BME280;62197;51.632;13.700;2022-12-29T09:00:25;99420.81;;;10.62;81.67
73860;BME280;62197;51.632;13.700;2022-12-29T09:02:50;99401.53;;;10.72;81.28
73860;BME280;62197;51.632;13.700;2022-12-29T09:05:15;99405.47;;;10.81;81.23
73860;BME280;62197;51.632;13.700;2022-12-29T09:07:41;99429.19;;;10.77;80.32
73860;BME280;62197;51.632;13.700;2022-12-29T09:10:06;99420.13;;;10.87;80.44
73860;BME280;62197;51.632;13.700;2022-12-29T09:12:31;99420.41;;;10.96;80.01
73860;BME280;62197;51.632;13.700;2022-12-29T09:14:57;99408.59;;;11.00;80.44
73860;BME280;62197;51.632;13.700;2022-12-29T09:17:22;99403.84;;;10.96;79.26
73860;BME280;62197;51.632;13.700;2022-12-29T09:20:06;99417.75;;;11.11;79.26
73860;BME280;62197;51.632;13.700;2022-12-29T09:22:31;99402.25;;;11.10;78.99
73860;BME280;62197;51.632;13.700;2022-12-29T09:24:57;99421.63;;;11.20;78.78
73860;BME280;62197;51.632;13.700;2022-12-29T09:27:22;99413.91;;;11.27;77.92
73860;BME280;62197;51.632;13.700;2022-12-29T09:29:48;99431.09;;;11.39;77.10
73860;BME280;62197;51.632;13.700;2022-12-29T09:32:13;99422.81;;;11.44;76.74
73860;BME280;62197;51.632;13.700;2022-12-29T09:34:38;99420.34;;;11.52;76.34
73860;BME280;62197;51.632;13.700;2022-12-29T09:37:04;99413.44;;;11.55;76.67
73860;BME280;62197;51.632;13.700;2022-12-29T09:39:29;99418.94;;;11.40;76.56
73860;BME280;62197;51.632;13.700;2022-12-29T09:42:01;99426.69;;;11.43;76.86
73860;BME280;62197;51.632;13.700;2022-12-29T09:44:46;99413.97;;;11.47;75.67
73860;BME280;62197;51.632;13.700;2022-12-29T09:47:14;99402.13;;;11.51;75.72
73860;BME280;62197;51.632;13.700;2022-12-29T09:49:47;99396.03;;;11.59;75.21
73860;BME280;62197;51.632;13.700;2022-12-29T09:52:31;99393.81;;;11.56;75.48
73860;BME280;62197;51.632;13.700;2022-12-29T09:55:02;99410.72;;;11.65;74.73
73860;BME280;62197;51.632;13.700;2022-12-29T09:57:29;99419.50;;;11.52;75.35
73860;BME280;62197;51.632;13.700;2022-12-29T10:00:11;99413.97;;;11.52;75.34
73860;BME280;62197;51.632;13.700;2022-12-29T10:02:44;99418.97;;;11.55;75.37
73860;BME280;62197;51.632;13.700;2022-12-29T10:05:20;99407.38;;;11.58;75.32
73860;BME280;62197;51.632;13.700;2022-12-29T10:08:15;99426.72;;;11.63;74.98
73860;BME280;62197;51.632;13.700;2022-12-29T10:11:08;99403.84;;;11.72;75.03
73860;BME280;62197;51.632;13.700;2022-12-29T10:14:01;99426.22;;;11.71;75.15
73860;BME280;62197;51.632;13.700;2022-12-29T10:16:57;99422.63;;;11.75;74.46
73860;BME280;62197;51.632;13.700;2022-12-29T10:22:55;99401.91;;;11.78;73.70
73860;BME280;62197;51.632;13.700;2022-12-29T10:25:31;99406.31;;;11.74;73.82
73860;BME280;62197;51.632;13.700;2022-12-29T10:27:59;99370.69;;;11.72;74.58
73860;BME280;62197;51.632;13.700;2022-12-29T10:30:27;99389.72;;;11.79;74.50
73860;BME280;62197;51.632;13.700;2022-12-29T10:33:01;99384.75;;;11.91;74.17
73860;BME280;62197;51.632;13.700;2022-12-29T10:35:33;99386.44;;;11.97;73.69
73860;BME280;62197;51.632;13.700;2022-12-29T10:38:40;99375.38;;;11.92;73.38
73860;BME280;62197;51.632;13.700;2022-12-29T10:41:21;99385.31;;;12.03;73.36
73860;BME280;62197;51.632;13.700;2022-12-29T10:43:51;99379.22;;;12.16;72.65
73860;BME280;62197;51.632;13.700;2022-12-29T10:46:21;99373.94;;;12.30;71.90
73860;BME280;62197;51.632;13.700;2022-12-29T10:48:48;99369.22;;;12.35;71.95
73860;BME280;62197;51.632;13.700;2022-12-29T10:51:24;99376.16;;;12.38;71.43
73860;BME280;62197;51.632;13.700;2022-12-29T10:56:27;99360.41;;;12.23;71.23
73860;BME280;62197;51.632;13.700;2022-12-29T10:58:54;99396.91;;;12.30;71.15
73860;BME280;62197;51.632;13.700;2022-12-29T11:01:22;99390.56;;;12.20;71.46
73860;BME280;62197;51.632;13.700;2022-12-29T11:04:05;99376.75;;;12.10;71.58
73860;BME280;62197;51.632;13.700;2022-12-29T11:06:37;99372.88;;;12.11;70.86
73860;BME280;62197;51.632;13.700;2022-12-29T11:09:14;99370.38;;;12.09;71.32
73860;BME280;62197;51.632;13.700;2022-12-29T11:11:40;99367.66;;;11.94;72.31
73860;BME280;62197;51.632;13.700;2022-12-29T11:14:14;99375.09;;;11.89;72.63
73860;BME280;62197;51.632;13.700;2022-12-29T11:16:42;99365.44;;;11.86;72.86
73860;BME280;62197;51.632;13.700;2022-12-29T11:19:24;99354.91;;;11.93;72.21
73860;BME280;62197;51.632;13.700;2022-12-29T11:21:50;99353.25;;;11.92;72.56
73860;BME280;62197;51.632;13.700;2022-12-29T11:24:24;99352.69;;;11.95;71.88
73860;BME280;62197;51.632;13.700;2022-12-29T11:26:51;99338.88;;;11.90;71.67
73860;BME280;62197;51.632;13.700;2022-12-29T11:29:27;99361.81;;;12.01;71.92
73860;BME280;62197;51.632;13.700;2022-12-29T11:31:58;99362.66;;;12.01;71.38
73860;BME280;62197;51.632;13.700;2022-12-29T11:34:41;99368.44;;;12.05;71.22
73860;BME280;62197;51.632;13.700;2022-12-29T11:37:13;99360.13;;;12.20;70.80
73860;BME280;62197;51.632;13.700;2022-12-29T11:42:14;99358.66;;;12.62;69.30
73860;BME280;62197;51.632;13.700;2022-12-29T11:44:44;99313.53;;;12.62;68.62
73860;BME280;62197;51.632;13.700;2022-12-29T11:47:19;99339.41;;;12.91;68.25
73860;BME280;62197;51.632;13.700;2022-12-29T11:49:50;99347.28;;;13.28;67.35
73860;BME280;62197;51.632;13.700;2022-12-29T11:52:16;99336.44;;;13.36;66.67
73860;BME280;62197;51.632;13.700;2022-12-29T11:54:45;99344.69;;;13.46;65.95
73860;BME280;62197;51.632;13.700;2022-12-29T11:57:15;99338.38;;;13.41;66.40
73860;BME280;62197;51.632;13.700;2022-12-29T11:59:43;99347.53;;;13.36;66.57
73860;BME280;62197;51.632;13.700;2022-12-29T12:02:27;99336.28;;;13.18;66.88
73860;BME280;62197;51.632;13.700;2022-12-29T12:05:44;99329.97;;;13.02;67.94
73860;BME280;62197;51.632;13.700;2022-12-29T12:08:09;99328.91;;;13.42;66.76
73860;BME280;62197;51.632;13.700;2022-12-29T12:10:44;99324.34;;;13.22;67.55
73860;BME280;62197;51.632;13.700;2022-12-29T12:13:20;99333.22;;;13.92;64.66
73860;BME280;62197;51.632;13.700;2022-12-29T12:15:52;99321.56;;;13.95;64.11
73860;BME280;62197;51.632;13.700;2022-12-29T12:21:08;99324.63;;;14.98;61.69
73860;BME280;62197;51.632;13.700;2022-12-29T12:23:58;99297.47;;;14.48;61.78
73860;BME280;62197;51.632;13.700;2022-12-29T12:26:36;99311.44;;;13.80;64.29
73860;BME280;62197;51.632;13.700;2022-12-29T12:29:10;99310.28;;;13.52;65.52
73860;BME280;62197;51.632;13.700;2022-12-29T12:31:46;99302.81;;;13.09;67.06
73860;BME280;62197;51.632;13.700;2022-12-29T12:34:19;99299.19;;;13.14;67.30
73860;BME280;62197;51.632;13.700;2022-12-29T12:37:37;99284.81;;;13.12;67.47
73860;BME280;62197;51.632;13.700;2022-12-29T12:42:55;99303.97;;;12.93;67.81
73860;BME280;62197;51.632;13.700;2022-12-29T12:46:04;99315.06;;;12.93;68.83
73860;BME280;62197;51.632;13.700;2022-12-29T12:48:41;99328.69;;;12.85;68.62
73860;BME280;62197;51.632;13.700;2022-12-29T12:54:07;99310.69;;;12.82;68.42
73860;BME280;62197;51.632;13.700;2022-12-29T12:56:55;99318.69;;;12.89;68.51
73860;BME280;62197;51.632;13.700;2022-12-29T13:02:30;99325.88;;;12.90;68.94
73860;BME280;62197;51.632;13.700;2022-12-29T13:05:29;99299.69;;;12.67;69.49
73860;BME280;62197;51.632;13.700;2022-12-29T13:16:29;99320.00;;;12.32;71.21
73860;BME280;62197;51.632;13.700;2022-12-29T13:27:55;99323.06;;;12.16;72.11
73860;BME280;62197;51.632;13.700;2022-12-29T13:30:49;99319.50;;;12.05;72.38
73860;BME280;62197;51.632;13.700;2022-12-29T13:33:30;99320.63;;;11.89;72.32
73860;BME280;62197;51.632;13.700;2022-12-29T13:36:06;99335.84;;;11.92;72.88
73860;BME280;62197;51.632;13.700;2022-12-29T13:38:47;99337.22;;;11.89;72.58
73860;BME280;62197;51.632;13.700;2022-12-29T13:41:21;99323.69;;;11.77;73.00
73860;BME280;62197;51.632;13.700;2022-12-29T13:43:50;99356.03;;;11.92;72.24
73860;BME280;62197;51.632;13.700;2022-12-29T13:46:28;99344.97;;;11.97;72.00
73860;BME280;62197;51.632;13.700;2022-12-29T13:49:15;99355.44;;;12.00;72.08
73860;BME280;62197;51.632;13.700;2022-12-29T13:51:50;99356.00;;;11.97;71.92
73860;BME280;62197;51.632;13.700;2022-12-29T13:54:37;99353.25;;;11.92;72.20
73860;BME280;62197;51.632;13.700;2022-12-29T13:57:34;99367.91;;;11.88;72.48
73860;BME280;62197;51.632;13.700;2022-12-29T14:00:21;99365.44;;;11.86;72.72
73860;BME280;62197;51.632;13.700;2022-12-29T14:03:16;99367.09;;;11.82;72.74
73860;BME280;62197;51.632;13.700;2022-12-29T14:05:44;99374.25;;;11.83;72.33
73860;BME280;62197;51.632;13.700;2022-12-29T14:08:16;99356.03;;;11.82;72.28